sensor_id;sensor_type;location;lat;lon;timestamp;pressure;altitude;pressure_sealevel;temperature;humidity
26823;BME280;14852;51.910;8.878;2023-12-04T00:01:18;99859.22;;;1.49;62.00
26823;BME280;14852;51.910;8.878;2023-12-04T00:03:45;99850.72;;;1.45;62.11
26823;BME280;14852;51.910;8.878;2023-12-04T00:06:11;99845.63;;;1.42;62.10
26823;BME280;14852;51.910;8.878;2023-12-04T00:08:38;99842.22;;;1.40;62.31
26823;BME280;14852;51.910;8.878;2023-12-04T00:11:07;99836.25;;;1.41;62.31
26823;BME280;14852;51.910;8.878;2023-12-04T00:13:33;99832.84;;;1.41;62.24
26823;BME280;14852;51.910;8.878;2023-12-04T00:15:59;99832.00;;;1.40;62.30
26823;BME280;14852;51.910;8.878;2023-12-04T00:18:25;99834.53;;;1.42;62.32
26823;BME280;14852;51.910;8.878;2023-12-04T00:20:51;99820.03;;;1.42;62.32
26823;BME280;14852;51.910;8.878;2023-12-04T00:23:17;99810.66;;;1.41;62.32
26823;BME280;14852;51.910;8.878;2023-12-04T00:25:42;99806.38;;;1.42;62.31
26823;BME280;14852;51.910;8.878;2023-12-04T00:28:08;99813.22;;;1.41;62.39
26823;BME280;14852;51.910;8.878;2023-12-04T00:30:34;99809.81;;;1.39;62.51
26823;BME280;14852;51.910;8.878;2023-12-04T00:33:00;99800.47;;;1.38;62.68
26823;BME280;14852;51.910;8.878;2023-12-04T00:35:26;99800.44;;;1.40;62.78
26823;BME280;14852;51.910;8.878;2023-12-04T00:37:51;99790.19;;;1.40;62.71
26823;BME280;14852;51.910;8.878;2023-12-04T00:40:17;99791.03;;;1.40;62.81
26823;BME280;14852;51.910;8.878;2023-12-04T00:42:43;99789.31;;;1.42;62.57
26823;BME280;14852;51.910;8.878;2023-12-04T00:45:09;99778.22;;;1.40;62.72
26823;BME280;14852;51.910;8.878;2023-12-04T00:47:35;99782.50;;;1.40;62.90
26823;BME280;14852;51.910;8.878;2023-12-04T00:50:00;99770.56;;;1.40;62.97
26823;BME280;14852;51.910;8.878;2023-12-04T00:52:26;99764.59;;;1.40;62.87
26823;BME280;14852;51.910;8.878;2023-12-04T00:54:52;99759.44;;;1.41;62.95
26823;BME280;14852;51.910;8.878;2023-12-04T00:57:19;99757.72;;;1.42;62.62
26823;BME280;14852;51.910;8.878;2023-12-04T00:59:45;99767.09;;;1.43;62.62
26823;BME280;14852;51.910;8.878;2023-12-04T01:02:10;99770.50;;;1.43;62.60
26823;BME280;14852;51.910;8.878;2023-12-04T01:04:39;99769.66;;;1.44;62.56
26823;BME280;14852;51.910;8.878;2023-12-04T01:07:05;99768.75;;;1.47;62.53
26823;BME280;14852;51.910;8.878;2023-12-04T01:09:31;99767.03;;;1.49;62.80
26823;BME280;14852;51.910;8.878;2023-12-04T01:11:56;99761.00;;;1.50;62.92
26823;BME280;14852;51.910;8.878;2023-12-04T01:14:22;99766.97;;;1.52;62.87
26823;BME280;14852;51.910;8.878;2023-12-04T01:16:48;99764.41;;;1.52;62.63
26823;BME280;14852;51.910;8.878;2023-12-04T01:19:13;99760.97;;;1.53;62.71
26823;BME280;14852;51.910;8.878;2023-12-04T01:21:39;99748.16;;;1.53;62.86
26823;BME280;14852;51.910;8.878;2023-12-04T01:24:05;99749.00;;;1.55;62.75
26823;BME280;14852;51.910;8.878;2023-12-04T01:26:31;99746.47;;;1.52;63.01
26823;BME280;14852;51.910;8.878;2023-12-04T01:28:57;99740.47;;;1.53;63.21
26823;BME280;14852;51.910;8.878;2023-12-04T01:31:22;99742.16;;;1.56;62.93
26823;BME280;14852;51.910;8.878;2023-12-04T01:33:48;99734.47;;;1.57;62.92
26823;BME280;14852;51.910;8.878;2023-12-04T01:36:14;99735.31;;;1.58;63.16
26823;BME280;14852;51.910;8.878;2023-12-04T01:38:40;99729.34;;;1.57;62.85
26823;BME280;14852;51.910;8.878;2023-12-04T01:41:06;99721.66;;;1.57;62.96
26823;BME280;14852;51.910;8.878;2023-12-04T01:43:32;99725.94;;;1.55;62.87
26823;BME280;14852;51.910;8.878;2023-12-04T01:45:59;99722.53;;;1.55;63.05
26823;BME280;14852;51.910;8.878;2023-12-04T01:48:27;99724.22;;;1.56;63.03
26823;BME280;14852;51.910;8.878;2023-12-04T01:50:54;99721.66;;;1.56;63.13
26823;BME280;14852;51.910;8.878;2023-12-04T01:53:21;99723.38;;;1.55;63.21
26823;BME280;14852;51.910;8.878;2023-12-04T01:55:47;99714.88;;;1.53;63.01
26823;BME280;14852;51.910;8.878;2023-12-04T01:58:14;99714.00;;;1.54;63.26
26823;BME280;14852;51.910;8.878;2023-12-04T02:00:40;99714.91;;;1.50;63.35
26823;BME280;14852;51.910;8.878;2023-12-04T02:03:06;99711.50;;;1.51;63.30
26823;BME280;14852;51.910;8.878;2023-12-04T02:05:34;99713.28;;;1.48;63.28
26823;BME280;14852;51.910;8.878;2023-12-04T02:08:00;99714.19;;;1.43;63.73
26823;BME280;14852;51.910;8.878;2023-12-04T02:10:26;99710.78;;;1.43;63.45
26823;BME280;14852;51.910;8.878;2023-12-04T02:12:52;99703.97;;;1.42;63.66
26823;BME280;14852;51.910;8.878;2023-12-04T02:15:18;99699.69;;;1.42;63.59
26823;BME280;14852;51.910;8.878;2023-12-04T02:17:44;99694.59;;;1.41;63.56
26823;BME280;14852;51.910;8.878;2023-12-04T02:20:13;99693.75;;;1.40;63.50
26823;BME280;14852;51.910;8.878;2023-12-04T02:22:39;99692.13;;;1.36;63.46
26823;BME280;14852;51.910;8.878;2023-12-04T02:25:06;99693.81;;;1.37;63.67
26823;BME280;14852;51.910;8.878;2023-12-04T02:27:50;99669.13;;;1.35;63.70
26823;BME280;14852;51.910;8.878;2023-12-04T02:30:22;99676.78;;;1.35;63.68
26823;BME280;14852;51.910;8.878;2023-12-04T02:32:49;99675.94;;;1.34;63.59
26823;BME280;14852;51.910;8.878;2023-12-04T02:35:21;99670.81;;;1.34;63.45
26823;BME280;14852;51.910;8.878;2023-12-04T02:37:49;99663.16;;;1.34;63.76
26823;BME280;14852;51.910;8.878;2023-12-04T02:40:15;99664.81;;;1.37;63.50
26823;BME280;14852;51.910;8.878;2023-12-04T02:42:41;99660.53;;;1.37;63.49
26823;BME280;14852;51.910;8.878;2023-12-04T02:45:07;99655.44;;;1.37;63.56
26823;BME280;14852;51.910;8.878;2023-12-04T02:47:33;99668.16;;;1.40;63.27
26823;BME280;14852;51.910;8.878;2023-12-04T02:49:59;99654.47;;;1.41;63.25
26823;BME280;14852;51.910;8.878;2023-12-04T02:52:24;99652.78;;;1.40;63.15
26823;BME280;14852;51.910;8.878;2023-12-04T02:54:50;99635.75;;;1.39;63.32
26823;BME280;14852;51.910;8.878;2023-12-04T02:57:16;99637.44;;;1.40;63.11
26823;BME280;14852;51.910;8.878;2023-12-04T02:59:42;99640.81;;;1.42;63.11
26823;BME280;14852;51.910;8.878;2023-12-04T03:02:07;99630.56;;;1.42;63.07
26823;BME280;14852;51.910;8.878;2023-12-04T03:04:34;99619.50;;;1.42;62.95
26823;BME280;14852;51.910;8.878;2023-12-04T03:07:00;99617.75;;;1.44;63.00
26823;BME280;14852;51.910;8.878;2023-12-04T03:09:26;99619.44;;;1.45;63.04
26823;BME280;14852;51.910;8.878;2023-12-04T03:11:52;99610.91;;;1.46;62.89
26823;BME280;14852;51.910;8.878;2023-12-04T03:14:17;99601.47;;;1.48;63.09
26823;BME280;14852;51.910;8.878;2023-12-04T03:16:43;99595.44;;;1.51;63.01
26823;BME280;14852;51.910;8.878;2023-12-04T03:19:09;99597.09;;;1.53;62.59
26823;BME280;14852;51.910;8.878;2023-12-04T03:21:35;99591.94;;;1.56;62.51
26823;BME280;14852;51.910;8.878;2023-12-04T03:24:00;99593.63;;;1.57;62.69
26823;BME280;14852;51.910;8.878;2023-12-04T03:26:26;99591.88;;;1.59;62.68
26823;BME280;14852;51.910;8.878;2023-12-04T03:28:52;99592.78;;;1.57;62.50
26823;BME280;14852;51.910;8.878;2023-12-04T03:31:18;99574.00;;;1.56;62.56
26823;BME280;14852;51.910;8.878;2023-12-04T03:33:43;99581.69;;;1.56;62.45
26823;BME280;14852;51.910;8.878;2023-12-04T03:36:09;99574.88;;;1.55;62.26
26823;BME280;14852;51.910;8.878;2023-12-04T03:38:35;99574.88;;;1.55;62.58
26823;BME280;14852;51.910;8.878;2023-12-04T03:41:01;99573.97;;;1.58;62.22
26823;BME280;14852;51.910;8.878;2023-12-04T03:43:27;99572.25;;;1.58;62.32
26823;BME280;14852;51.910;8.878;2023-12-04T03:45:53;99574.81;;;1.60;62.09
26823;BME280;14852;51.910;8.878;2023-12-04T03:48:18;99573.88;;;1.62;62.26
26823;BME280;14852;51.910;8.878;2023-12-04T03:50:44;99567.84;;;1.65;61.99
26823;BME280;14852;51.910;8.878;2023-12-04T03:53:10;99566.16;;;1.64;62.06
26823;BME280;14852;51.910;8.878;2023-12-04T03:55:36;99560.16;;;1.65;61.90
26823;BME280;14852;51.910;8.878;2023-12-04T03:58:02;99551.66;;;1.64;62.21
26823;BME280;14852;51.910;8.878;2023-12-04T04:00:28;99548.19;;;1.67;62.08
26823;BME280;14852;51.910;8.878;2023-12-04T04:02:54;99537.09;;;1.66;61.99
26823;BME280;14852;51.910;8.878;2023-12-04T04:05:20;99540.50;;;1.67;61.88
26823;BME280;14852;51.910;8.878;2023-12-04T04:07:48;99532.00;;;1.65;61.97
26823;BME280;14852;51.910;8.878;2023-12-04T04:10:14;99535.44;;;1.64;61.74
26823;BME280;14852;51.910;8.878;2023-12-04T04:12:40;99543.09;;;1.65;61.83
26823;BME280;14852;51.910;8.878;2023-12-04T04:15:06;99534.53;;;1.66;61.71
26823;BME280;14852;51.910;8.878;2023-12-04T04:17:32;99535.34;;;1.68;61.51
26823;BME280;14852;51.910;8.878;2023-12-04T04:19:59;99531.09;;;1.69;61.79
26823;BME280;14852;51.910;8.878;2023-12-04T04:22:25;99529.31;;;1.72;61.74
26823;BME280;14852;51.910;8.878;2023-12-04T04:24:51;99532.72;;;1.73;61.59
26823;BME280;14852;51.910;8.878;2023-12-04T04:27:16;99529.25;;;1.74;61.43
26823;BME280;14852;51.910;8.878;2023-12-04T04:29:42;99527.47;;;1.77;61.44
26823;BME280;14852;51.910;8.878;2023-12-04T04:32:08;99524.03;;;1.80;61.48
26823;BME280;14852;51.910;8.878;2023-12-04T04:34:33;99524.00;;;1.81;61.28
26823;BME280;14852;51.910;8.878;2023-12-04T04:36:59;99530.78;;;1.84;60.78
26823;BME280;14852;51.910;8.878;2023-12-04T04:39:25;99517.06;;;1.85;60.46
26823;BME280;14852;51.910;8.878;2023-12-04T04:41:51;99511.06;;;1.86;60.87
26823;BME280;14852;51.910;8.878;2023-12-04T04:44:16;99523.03;;;1.86;60.79
26823;BME280;14852;51.910;8.878;2023-12-04T04:46:42;99515.28;;;1.89;60.56
26823;BME280;14852;51.910;8.878;2023-12-04T04:49:08;99510.13;;;1.90;60.61
26823;BME280;14852;51.910;8.878;2023-12-04T04:51:34;99513.56;;;1.89;60.70
26823;BME280;14852;51.910;8.878;2023-12-04T04:54:01;99505.88;;;1.89;60.25
26823;BME280;14852;51.910;8.878;2023-12-04T04:56:26;99511.00;;;1.89;60.60
26823;BME280;14852;51.910;8.878;2023-12-04T04:58:52;99506.72;;;1.91;60.46
26823;BME280;14852;51.910;8.878;2023-12-04T05:01:18;99504.13;;;1.93;60.30
26823;BME280;14852;51.910;8.878;2023-12-04T05:03:44;99498.16;;;1.92;60.54
26823;BME280;14852;51.910;8.878;2023-12-04T05:06:10;99502.44;;;1.92;60.25
26823;BME280;14852;51.910;8.878;2023-12-04T05:08:35;99496.44;;;1.93;60.58
26823;BME280;14852;51.910;8.878;2023-12-04T05:11:01;99501.56;;;1.93;60.30
26823;BME280;14852;51.910;8.878;2023-12-04T05:13:27;99493.00;;;1.94;60.17
26823;BME280;14852;51.910;8.878;2023-12-04T05:15:53;99498.97;;;1.94;60.31
26823;BME280;14852;51.910;8.878;2023-12-04T05:18:18;99492.06;;;1.96;60.21
26823;BME280;14852;51.910;8.878;2023-12-04T05:20:44;99492.88;;;1.98;60.03
26823;BME280;14852;51.910;8.878;2023-12-04T05:23:10;99491.97;;;2.01;60.06
26823;BME280;14852;51.910;8.878;2023-12-04T05:25:35;99479.13;;;2.02;60.24
26823;BME280;14852;51.910;8.878;2023-12-04T05:28:01;99485.91;;;2.05;60.17
26823;BME280;14852;51.910;8.878;2023-12-04T05:30:27;99491.00;;;2.06;60.17
26823;BME280;14852;51.910;8.878;2023-12-04T05:32:53;99481.59;;;2.07;60.00
26823;BME280;14852;51.910;8.878;2023-12-04T05:35:20;99480.69;;;2.08;59.96
26823;BME280;14852;51.910;8.878;2023-12-04T05:37:45;99479.81;;;2.09;59.73
26823;BME280;14852;51.910;8.878;2023-12-04T05:40:12;99481.59;;;2.07;59.74
26823;BME280;14852;51.910;8.878;2023-12-04T05:42:38;99478.97;;;2.08;59.47
26823;BME280;14852;51.910;8.878;2023-12-04T05:45:04;99473.84;;;2.08;59.48
26823;BME280;14852;51.910;8.878;2023-12-04T05:47:30;99473.81;;;2.10;59.79
26823;BME280;14852;51.910;8.878;2023-12-04T05:49:55;99461.84;;;2.10;59.66
26823;BME280;14852;51.910;8.878;2023-12-04T05:52:21;99466.94;;;2.12;59.90
26823;BME280;14852;51.910;8.878;2023-12-04T05:54:47;99467.75;;;2.14;59.62
26823;BME280;14852;51.910;8.878;2023-12-04T05:57:13;99466.94;;;2.12;59.36
26823;BME280;14852;51.910;8.878;2023-12-04T05:59:39;99461.84;;;2.10;59.66
26823;BME280;14852;51.910;8.878;2023-12-04T06:02:05;99460.13;;;2.11;59.43
26823;BME280;14852;51.910;8.878;2023-12-04T06:04:30;99460.97;;;2.11;59.74
26823;BME280;14852;51.910;8.878;2023-12-04T06:06:56;99469.53;;;2.10;59.29
26823;BME280;14852;51.910;8.878;2023-12-04T06:09:22;99477.25;;;2.09;59.31
26823;BME280;14852;51.910;8.878;2023-12-04T06:11:48;99468.78;;;2.07;59.19
26823;BME280;14852;51.910;8.878;2023-12-04T06:14:13;99472.22;;;2.06;59.11
26823;BME280;14852;51.910;8.878;2023-12-04T06:16:39;99475.66;;;2.05;59.13
26823;BME280;14852;51.910;8.878;2023-12-04T06:19:05;99462.03;;;2.03;59.10
26823;BME280;14852;51.910;8.878;2023-12-04T06:21:31;99468.03;;;2.02;59.36
26823;BME280;14852;51.910;8.878;2023-12-04T06:23:57;99462.91;;;2.02;59.03
26823;BME280;14852;51.910;8.878;2023-12-04T06:26:24;99453.53;;;2.01;58.87
26823;BME280;14852;51.910;8.878;2023-12-04T06:28:50;99463.75;;;2.02;58.93
26823;BME280;14852;51.910;8.878;2023-12-04T06:31:16;99461.19;;;2.02;58.82
26823;BME280;14852;51.910;8.878;2023-12-04T06:33:42;99451.81;;;2.01;59.03
26823;BME280;14852;51.910;8.878;2023-12-04T06:36:09;99449.25;;;2.01;58.95
26823;BME280;14852;51.910;8.878;2023-12-04T06:38:40;99451.00;;;1.99;58.78
26823;BME280;14852;51.910;8.878;2023-12-04T06:41:07;99455.28;;;1.99;58.89
26823;BME280;14852;51.910;8.878;2023-12-04T06:43:34;99456.13;;;1.99;58.82
26823;BME280;14852;51.910;8.878;2023-12-04T06:46:00;99453.56;;;1.99;59.02
26823;BME280;14852;51.910;8.878;2023-12-04T06:48:26;99447.63;;;1.97;58.52
26823;BME280;14852;51.910;8.878;2023-12-04T06:50:52;99454.47;;;1.97;58.78
26823;BME280;14852;51.910;8.878;2023-12-04T06:53:17;99444.22;;;1.97;58.72
26823;BME280;14852;51.910;8.878;2023-12-04T06:55:43;99460.53;;;1.94;58.79
26823;BME280;14852;51.910;8.878;2023-12-04T06:58:09;99456.25;;;1.95;58.56
26823;BME280;14852;51.910;8.878;2023-12-04T07:00:35;99460.56;;;1.93;58.46
26823;BME280;14852;51.910;8.878;2023-12-04T07:03:01;99461.44;;;1.92;58.39
26823;BME280;14852;51.910;8.878;2023-12-04T07:05:27;99454.59;;;1.92;58.53
26823;BME280;14852;51.910;8.878;2023-12-04T07:07:52;99459.72;;;1.92;58.48
26823;BME280;14852;51.910;8.878;2023-12-04T07:10:18;99451.22;;;1.90;58.63
26823;BME280;14852;51.910;8.878;2023-12-04T07:12:44;99454.63;;;1.91;58.49
26823;BME280;14852;51.910;8.878;2023-12-04T07:15:11;99448.66;;;1.90;58.69
26823;BME280;14852;51.910;8.878;2023-12-04T07:17:39;99450.41;;;1.88;58.64
26823;BME280;14852;51.910;8.878;2023-12-04T07:20:05;99452.16;;;1.86;58.26
26823;BME280;14852;51.910;8.878;2023-12-04T07:22:34;99443.63;;;1.86;58.56
26823;BME280;14852;51.910;8.878;2023-12-04T07:25:00;99439.41;;;1.85;58.13
26823;BME280;14852;51.910;8.878;2023-12-04T07:27:26;99443.63;;;1.86;58.44
26823;BME280;14852;51.910;8.878;2023-12-04T07:29:52;99449.59;;;1.86;58.38
26823;BME280;14852;51.910;8.878;2023-12-04T07:32:17;99444.47;;;1.86;57.92
26823;BME280;14852;51.910;8.878;2023-12-04T07:34:44;99444.44;;;1.88;57.89
26823;BME280;14852;51.910;8.878;2023-12-04T07:37:10;99451.31;;;1.86;57.91
26823;BME280;14852;51.910;8.878;2023-12-04T07:39:35;99450.44;;;1.87;57.93
26823;BME280;14852;51.910;8.878;2023-12-04T07:42:01;99438.47;;;1.87;58.02
26823;BME280;14852;51.910;8.878;2023-12-04T07:44:27;99442.72;;;1.88;57.69
26823;BME280;14852;51.910;8.878;2023-12-04T07:46:53;99444.41;;;1.89;57.48
26823;BME280;14852;51.910;8.878;2023-12-04T07:49:19;99428.19;;;1.89;57.59
26823;BME280;14852;51.910;8.878;2023-12-04T07:51:45;99428.19;;;1.89;57.73
26823;BME280;14852;51.910;8.878;2023-12-04T07:54:10;99412.84;;;1.87;57.56
26823;BME280;14852;51.910;8.878;2023-12-04T07:56:37;99425.63;;;1.89;57.68
26823;BME280;14852;51.910;8.878;2023-12-04T07:59:02;99418.81;;;1.88;57.34
26823;BME280;14852;51.910;8.878;2023-12-04T08:01:28;99414.56;;;1.87;57.60
26823;BME280;14852;51.910;8.878;2023-12-04T08:03:54;99412.84;;;1.87;57.61
26823;BME280;14852;51.910;8.878;2023-12-04T08:06:20;99411.09;;;1.89;57.25
26823;BME280;14852;51.910;8.878;2023-12-04T08:08:46;99402.53;;;1.90;57.32
26823;BME280;14852;51.910;8.878;2023-12-04T08:11:11;99406.81;;;1.90;57.37
26823;BME280;14852;51.910;8.878;2023-12-04T08:13:39;99413.66;;;1.89;57.22
26823;BME280;14852;51.910;8.878;2023-12-04T08:16:12;99402.56;;;1.89;56.92
26823;BME280;14852;51.910;8.878;2023-12-04T08:18:38;99407.66;;;1.90;57.04
26823;BME280;14852;51.910;8.878;2023-12-04T08:21:04;99419.63;;;1.90;56.92
26823;BME280;14852;51.910;8.878;2023-12-04T08:23:29;99416.22;;;1.89;56.81
26823;BME280;14852;51.910;8.878;2023-12-04T08:25:56;99408.50;;;1.91;56.77
26823;BME280;14852;51.910;8.878;2023-12-04T08:28:22;99405.03;;;1.93;56.75
26823;BME280;14852;51.910;8.878;2023-12-04T08:30:48;99397.31;;;1.95;56.74
26823;BME280;14852;51.910;8.878;2023-12-04T08:33:14;99400.66;;;1.97;56.76
26823;BME280;14852;51.910;8.878;2023-12-04T08:35:40;99400.63;;;1.98;56.60
26823;BME280;14852;51.910;8.878;2023-12-04T08:38:06;99396.28;;;2.02;56.63
26823;BME280;14852;51.910;8.878;2023-12-04T08:40:32;99394.56;;;2.02;56.58
26823;BME280;14852;51.910;8.878;2023-12-04T08:42:57;99395.38;;;2.04;56.50
26823;BME280;14852;51.910;8.878;2023-12-04T08:45:23;99388.41;;;2.09;56.54
26823;BME280;14852;51.910;8.878;2023-12-04T08:47:49;99386.72;;;2.08;56.42
26823;BME280;14852;51.910;8.878;2023-12-04T08:50:15;99375.56;;;2.11;56.53
26823;BME280;14852;51.910;8.878;2023-12-04T08:52:42;99386.59;;;2.14;56.42
26823;BME280;14852;51.910;8.878;2023-12-04T08:55:08;99380.53;;;2.18;56.69
26823;BME280;14852;51.910;8.878;2023-12-04T08:57:34;99374.41;;;2.23;56.74
26823;BME280;14852;51.910;8.878;2023-12-04T08:59:59;99380.31;;;2.26;56.33
26823;BME280;14852;51.910;8.878;2023-12-04T09:02:25;99377.66;;;2.31;56.49
26823;BME280;14852;51.910;8.878;2023-12-04T09:04:51;99371.53;;;2.36;56.29
26823;BME280;14852;51.910;8.878;2023-12-04T09:07:17;99380.88;;;2.39;56.07
26823;BME280;14852;51.910;8.878;2023-12-04T09:09:42;99373.16;;;2.39;55.80
26823;BME280;14852;51.910;8.878;2023-12-04T09:12:10;99364.56;;;2.41;56.21
26823;BME280;14852;51.910;8.878;2023-12-04T09:14:36;99367.91;;;2.43;55.85
26823;BME280;14852;51.910;8.878;2023-12-04T09:17:01;99367.97;;;2.42;55.74
26823;BME280;14852;51.910;8.878;2023-12-04T09:19:29;99367.84;;;2.46;55.61
26823;BME280;14852;51.910;8.878;2023-12-04T09:21:55;99368.72;;;2.45;55.74
26823;BME280;14852;51.910;8.878;2023-12-04T09:24:21;99367.81;;;2.48;55.72
26823;BME280;14852;51.910;8.878;2023-12-04T09:26:46;99360.91;;;2.50;55.69
26823;BME280;14852;51.910;8.878;2023-12-04T09:29:12;99356.56;;;2.53;55.51
26823;BME280;14852;51.910;8.878;2023-12-04T09:31:38;99362.44;;;2.57;55.41
26823;BME280;14852;51.910;8.878;2023-12-04T09:34:04;99358.88;;;2.63;55.38
26823;BME280;14852;51.910;8.878;2023-12-04T09:36:29;99358.84;;;2.64;55.06
26823;BME280;14852;51.910;8.878;2023-12-04T09:38:55;99351.88;;;2.68;55.06
26823;BME280;14852;51.910;8.878;2023-12-04T09:41:21;99360.34;;;2.71;54.93
26823;BME280;14852;51.910;8.878;2023-12-04T09:43:47;99347.44;;;2.74;54.91
26823;BME280;14852;51.910;8.878;2023-12-04T09:46:14;99349.91;;;2.77;54.77
26823;BME280;14852;51.910;8.878;2023-12-04T09:48:43;99344.63;;;2.83;54.89
26823;BME280;14852;51.910;8.878;2023-12-04T09:51:10;99343.59;;;2.89;54.74
26823;BME280;14852;51.910;8.878;2023-12-04T09:53:36;99346.91;;;2.92;54.94
26823;BME280;14852;51.910;8.878;2023-12-04T09:56:07;99349.38;;;2.97;54.77
26823;BME280;14852;51.910;8.878;2023-12-04T09:58:34;99345.94;;;2.98;54.80
26823;BME280;14852;51.910;8.878;2023-12-04T10:01:01;99353.66;;;2.97;54.50
26823;BME280;14852;51.910;8.878;2023-12-04T10:03:28;99340.88;;;2.95;54.57
26823;BME280;14852;51.910;8.878;2023-12-04T10:05:55;99333.19;;;2.95;54.25
26823;BME280;14852;51.910;8.878;2023-12-04T10:08:21;99333.19;;;2.95;54.57
26823;BME280;14852;51.910;8.878;2023-12-04T10:10:47;99327.97;;;2.98;54.25
26823;BME280;14852;51.910;8.878;2023-12-04T10:13:13;99321.94;;;2.99;54.71
26823;BME280;14852;51.910;8.878;2023-12-04T10:15:49;99328.84;;;2.97;54.31
26823;BME280;14852;51.910;8.878;2023-12-04T10:18:41;99315.91;;;3.00;54.34
26823;BME280;14852;51.910;8.878;2023-12-04T10:21:07;99315.09;;;3.00;54.48
26823;BME280;14852;51.910;8.878;2023-12-04T10:23:51;99306.56;;;2.99;54.40
26823;BME280;14852;51.910;8.878;2023-12-04T10:26:17;99293.72;;;2.99;54.36
26823;BME280;14852;51.910;8.878;2023-12-04T10:29:00;99302.16;;;3.03;54.45
26823;BME280;14852;51.910;8.878;2023-12-04T10:31:26;99286.78;;;3.01;54.46
26823;BME280;14852;51.910;8.878;2023-12-04T10:33:52;99279.81;;;3.06;54.52
26823;BME280;14852;51.910;8.878;2023-12-04T10:36:18;99272.81;;;3.11;54.26
26823;BME280;14852;51.910;8.878;2023-12-04T10:38:44;99270.19;;;3.13;54.30
26823;BME280;14852;51.910;8.878;2023-12-04T10:41:13;99263.16;;;3.19;54.12
26823;BME280;14852;51.910;8.878;2023-12-04T10:43:47;99267.28;;;3.23;53.96
26823;BME280;14852;51.910;8.878;2023-12-04T10:46:14;99252.03;;;3.19;53.68
26823;BME280;14852;51.910;8.878;2023-12-04T10:48:45;99240.19;;;3.15;53.51
26823;BME280;14852;51.910;8.878;2023-12-04T10:51:13;99239.50;;;3.10;53.78
26823;BME280;14852;51.910;8.878;2023-12-04T10:53:41;99240.44;;;3.07;53.70
26823;BME280;14852;51.910;8.878;2023-12-04T10:56:11;99244.72;;;3.07;53.69
26823;BME280;14852;51.910;8.878;2023-12-04T10:58:41;99239.66;;;3.04;53.65
26823;BME280;14852;51.910;8.878;2023-12-04T11:01:09;99235.53;;;3.00;53.77
26823;BME280;14852;51.910;8.878;2023-12-04T11:03:53;99230.41;;;3.00;53.65
26823;BME280;14852;51.910;8.878;2023-12-04T11:06:22;99226.25;;;2.96;53.58
26823;BME280;14852;51.910;8.878;2023-12-04T11:08:49;99235.63;;;2.97;53.61
26823;BME280;14852;51.910;8.878;2023-12-04T11:11:27;99232.25;;;2.95;53.79
26823;BME280;14852;51.910;8.878;2023-12-04T11:13:56;99213.41;;;2.96;53.57
26823;BME280;14852;51.910;8.878;2023-12-04T11:16:45;99215.13;;;2.95;53.51
26823;BME280;14852;51.910;8.878;2023-12-04T11:21:58;99214.00;;;3.04;53.94
26823;BME280;14852;51.910;8.878;2023-12-04T11:24:24;99208.78;;;3.07;53.76
26823;BME280;14852;51.910;8.878;2023-12-04T11:26:50;99203.56;;;3.10;53.73
26823;BME280;14852;51.910;8.878;2023-12-04T11:29:18;99201.75;;;3.12;53.45
26823;BME280;14852;51.910;8.878;2023-12-04T11:31:45;99203.44;;;3.13;53.43
26823;BME280;14852;51.910;8.878;2023-12-04T11:34:12;99199.16;;;3.13;53.72
26823;BME280;14852;51.910;8.878;2023-12-04T11:36:38;99189.69;;;3.15;53.58
26823;BME280;14852;51.910;8.878;2023-12-04T11:39:09;99189.50;;;3.21;53.54
26823;BME280;14852;51.910;8.878;2023-12-04T11:41:40;99188.47;;;3.27;53.24
26823;BME280;14852;51.910;8.878;2023-12-04T11:44:12;99185.84;;;3.28;53.53
26823;BME280;14852;51.910;8.878;2023-12-04T11:46:57;99191.81;;;3.29;53.21
26823;BME280;14852;51.910;8.878;2023-12-04T11:49:26;99187.44;;;3.33;53.16
26823;BME280;14852;51.910;8.878;2023-12-04T11:51:55;99172.72;;;3.38;53.17
26823;BME280;14852;51.910;8.878;2023-12-04T11:54:22;99174.34;;;3.40;53.24
26823;BME280;14852;51.910;8.878;2023-12-04T11:59:38;99153.66;;;3.45;53.06
26823;BME280;14852;51.910;8.878;2023-12-04T12:02:07;99157.69;;;3.52;53.08
26823;BME280;14852;51.910;8.878;2023-12-04T12:04:33;99167.75;;;3.58;53.22
26823;BME280;14852;51.910;8.878;2023-12-04T12:06:59;99162.81;;;3.52;52.96
26823;BME280;14852;51.910;8.878;2023-12-04T12:09:32;99167.03;;;3.54;52.97
26823;BME280;14852;51.910;8.878;2023-12-04T12:12:02;99158.47;;;3.54;52.88
26823;BME280;14852;51.910;8.878;2023-12-04T12:14:28;99156.66;;;3.57;53.13
26823;BME280;14852;51.910;8.878;2023-12-04T12:16:55;99163.53;;;3.57;52.89
26823;BME280;14852;51.910;8.878;2023-12-04T12:19:21;99162.56;;;3.59;53.27
26823;BME280;14852;51.910;8.878;2023-12-04T12:21:48;99156.41;;;3.65;53.04
26823;BME280;14852;51.910;8.878;2023-12-04T12:24:14;99157.97;;;3.69;53.22
26823;BME280;14852;51.910;8.878;2023-12-04T12:26:40;99146.72;;;3.72;53.24
26823;BME280;14852;51.910;8.878;2023-12-04T12:29:08;99137.28;;;3.72;53.15
26823;BME280;14852;51.910;8.878;2023-12-04T12:31:34;99136.34;;;3.75;53.13
26823;BME280;14852;51.910;8.878;2023-12-04T12:34:00;99136.25;;;3.78;53.30
26823;BME280;14852;51.910;8.878;2023-12-04T12:36:26;99132.75;;;3.80;53.05
26823;BME280;14852;51.910;8.878;2023-12-04T12:38:51;99134.25;;;3.86;53.12
26823;BME280;14852;51.910;8.878;2023-12-04T12:41:17;99130.84;;;3.85;52.70
26823;BME280;14852;51.910;8.878;2023-12-04T12:43:44;99127.38;;;3.86;52.89
26823;BME280;14852;51.910;8.878;2023-12-04T12:46:10;99105.94;;;3.87;53.01
26823;BME280;14852;51.910;8.878;2023-12-04T12:48:36;99111.19;;;3.84;52.79
26823;BME280;14852;51.910;8.878;2023-12-04T12:51:02;99108.69;;;3.81;52.57
26823;BME280;14852;51.910;8.878;2023-12-04T12:53:28;99106.94;;;3.83;52.90
26823;BME280;14852;51.910;8.878;2023-12-04T12:55:57;99101.06;;;3.80;52.70
26823;BME280;14852;51.910;8.878;2023-12-04T12:58:24;99090.00;;;3.78;52.72
26823;BME280;14852;51.910;8.878;2023-12-04T13:00:50;99092.69;;;3.75;52.63
26823;BME280;14852;51.910;8.878;2023-12-04T13:03:19;99095.34;;;3.72;52.19
26823;BME280;14852;51.910;8.878;2023-12-04T13:05:45;99097.22;;;3.68;52.12
26823;BME280;14852;51.910;8.878;2023-12-04T13:08:11;99094.75;;;3.65;51.55
26823;BME280;14852;51.910;8.878;2023-12-04T13:10:37;99087.06;;;3.63;52.04
26823;BME280;14852;51.910;8.878;2023-12-04T13:13:03;99092.28;;;3.62;52.06